Time;durP1;ratioP1;P1;durP2;ratioP2;P2;SDS_P1;SDS_P2;PMS_P1;PMS_P2;Temp;Humidity;BMP_temperature;BMP_pressure;BME280_temperature;BME280_humidity;BME280_pressure;Samples;Min_cycle;Max_cycle;Signal;HPM_P1;HPM_P2
2023/08/29 00:02:09;;;;;;;0.80;0.73;;;12.00;99.90;;;;;;5074530;28;20186;-71
2023/08/29 00:04:34;;;;;;;1.07;1.07;;;12.00;99.90;;;;;;5074228;28;20516;-70
2023/08/29 00:07:00;;;;;;;0.50;0.50;;;12.00;99.90;;;;;;5074337;28;20516;-70
2023/08/29 00:09:26;;;;;;;1.40;1.33;;;11.90;99.90;;;;;;5074552;28;20172;-70
2023/08/29 00:11:51;;;;;;;0.53;0.40;;;11.80;99.90;;;;;;5074208;28;20189;-71
2023/08/29 00:14:17;;;;;;;0.50;0.50;;;11.80;99.90;;;;;;5074130;28;20170;-71
2023/08/29 00:16:42;;;;;;;0.40;0.40;;;11.80;99.90;;;;;;5074186;28;20284;-71
2023/08/29 00:19:08;;;;;;;0.57;0.40;;;11.80;99.90;;;;;;5073942;28;20185;-71
2023/08/29 00:21:34;;;;;;;1.80;1.70;;;11.80;99.90;;;;;;5073815;28;20170;-71
2023/08/29 00:23:59;;;;;;;1.30;1.23;;;11.90;99.90;;;;;;5074013;28;20637;-71
2023/08/29 00:26:25;;;;;;;0.77;0.77;;;12.00;99.90;;;;;;5074213;28;20645;-71
2023/08/29 00:28:53;;;;;;;0.90;0.90;;;12.00;99.90;;;;;;5074165;28;20188;-71
2023/08/29 00:31:18;;;;;;;1.13;1.13;;;12.00;99.90;;;;;;5074019;28;20252;-71
2023/08/29 00:33:44;;;;;;;1.13;1.03;;;12.00;99.90;;;;;;5073738;28;20440;-71
2023/08/29 00:36:09;;;;;;;1.20;1.13;;;12.10;99.90;;;;;;5073625;28;20618;-71
2023/08/29 00:38:35;;;;;;;0.67;0.67;;;12.10;99.90;;;;;;5073915;28;20195;-71
2023/08/29 00:41:01;;;;;;;1.77;1.67;;;12.20;99.90;;;;;;5073833;28;20215;-70
2023/08/29 00:43:26;;;;;;;0.70;0.70;;;12.20;99.90;;;;;;5073540;28;20243;-71
2023/08/29 00:45:52;;;;;;;0.73;0.57;;;12.20;99.90;;;;;;5073355;28;20184;-71
2023/08/29 00:48:18;;;;;;;0.60;0.60;;;12.20;99.90;;;;;;5073435;28;20204;-71
2023/08/29 00:50:44;;;;;;;0.60;0.60;;;12.20;99.90;;;;;;5073509;28;20523;-71
2023/08/29 00:53:10;;;;;;;1.20;1.20;;;12.20;99.90;;;;;;5073471;28;20423;-70
2023/08/29 00:55:36;;;;;;;1.17;0.60;;;12.20;99.90;;;;;;5073647;28;20313;-71
2023/08/29 00:58:02;;;;;;;0.70;0.70;;;12.20;99.90;;;;;;5073401;28;20431;-71
2023/08/29 01:00:29;;;;;;;0.57;0.50;;;12.20;99.90;;;;;;5073707;28;20412;-71
2023/08/29 01:02:55;;;;;;;1.07;0.83;;;12.10;99.90;;;;;;5073300;28;21004;-71
2023/08/29 01:05:21;;;;;;;2.10;0.90;;;12.00;99.90;;;;;;5073303;28;20833;-71
2023/08/29 01:07:52;;;;;;;2.93;1.43;;;12.00;99.90;;;;;;5073211;28;20483;-71
2023/08/29 01:10:27;;;;;;;1.93;1.77;;;11.90;99.90;;;;;;5073489;28;20396;-71
2023/08/29 01:13:07;;;;;;;1.60;1.50;;;12.00;99.90;;;;;;5073257;28;20420;-70
2023/08/29 01:15:33;;;;;;;0.40;0.40;;;12.00;99.90;;;;;;5073180;28;20436;-71
2023/08/29 01:18:03;;;;;;;1.00;0.90;;;12.00;99.90;;;;;;5073319;28;20453;-72
2023/08/29 01:20:30;;;;;;;2.73;0.60;;;11.90;99.90;;;;;;5073383;28;20756;-70
2023/08/29 01:23:31;;;;;;;0.50;0.50;;;11.90;99.90;;;;;;5073119;28;20463;-71
2023/08/29 01:26:12;;;;;;;1.27;1.10;;;11.90;99.90;;;;;;5073106;28;20399;-70
2023/08/29 01:28:40;;;;;;;0.50;0.50;;;11.80;99.90;;;;;;5073279;28;20458;-71
2023/08/29 01:31:07;;;;;;;0.83;0.80;;;11.80;99.90;;;;;;5073261;28;20426;-71
2023/08/29 01:33:34;;;;;;;1.20;1.20;;;11.80;99.90;;;;;;5073277;28;20434;-71
2023/08/29 01:35:59;;;;;;;0.50;0.50;;;11.90;99.90;;;;;;5072913;28;20407;-71
2023/08/29 01:38:25;;;;;;;1.00;1.00;;;11.90;99.90;;;;;;5073065;28;20407;-70
2023/08/29 01:40:50;;;;;;;0.60;0.60;;;11.90;99.90;;;;;;5073013;28;20173;-70
2023/08/29 01:43:16;;;;;;;1.03;1.03;;;11.90;99.90;;;;;;5072834;28;20192;-71
2023/08/29 01:45:42;;;;;;;0.97;0.90;;;11.90;99.90;;;;;;5072846;28;20166;-70
2023/08/29 01:48:10;;;;;;;1.43;1.40;;;11.90;99.90;;;;;;5074291;28;20620;-71
2023/08/29 01:50:36;;;;;;;0.73;0.73;;;11.80;99.90;;;;;;5076836;28;20185;-71
2023/08/29 01:53:02;;;;;;;0.80;0.80;;;11.80;99.90;;;;;;5076684;28;20753;-70
2023/08/29 01:55:28;;;;;;;0.50;0.50;;;11.90;99.90;;;;;;5076741;28;20399;-71
2023/08/29 01:57:55;;;;;;;1.00;0.90;;;12.00;99.90;;;;;;5076860;28;20465;-71
2023/08/29 02:00:22;;;;;;;0.97;0.97;;;11.90;99.90;;;;;;5076799;28;20395;-71
2023/08/29 02:02:48;;;;;;;0.87;0.87;;;11.90;99.90;;;;;;5076610;28;20435;-70
2023/08/29 02:05:13;;;;;;;4.50;2.50;;;11.90;99.90;;;;;;5076569;28;20495;-70
2023/08/29 02:07:39;;;;;;;0.60;0.60;;;11.80;99.90;;;;;;5076559;28;20200;-70
2023/08/29 02:10:05;;;;;;;0.50;0.50;;;11.80;99.90;;;;;;5076638;28;20172;-71
2023/08/29 02:12:31;;;;;;;0.50;0.50;;;11.80;99.90;;;;;;5076343;28;20209;-71
2023/08/29 02:14:57;;;;;;;1.07;0.83;;;11.80;99.90;;;;;;5076256;28;20439;-71
2023/08/29 02:17:23;;;;;;;1.17;0.50;;;11.80;99.90;;;;;;5076534;28;20161;-71
2023/08/29 02:19:48;;;;;;;2.00;1.90;;;11.80;99.90;;;;;;5076281;28;20524;-71
2023/08/29 02:22:14;;;;;;;0.70;0.60;;;11.90;99.90;;;;;;5076424;28;20200;-70
2023/08/29 02:24:40;;;;;;;1.20;1.10;;;12.00;99.90;;;;;;5076148;28;20174;-71
2023/08/29 02:27:06;;;;;;;0.50;0.50;;;12.10;99.90;;;;;;5076282;28;20223;-71
2023/08/29 02:29:32;;;;;;;1.07;0.90;;;12.10;99.90;;;;;;5076339;28;20165;-71
2023/08/29 02:31:57;;;;;;;0.83;0.70;;;12.10;99.90;;;;;;5076013;28;20205;-71
2023/08/29 02:34:24;;;;;;;0.53;0.53;;;12.10;99.90;;;;;;5075901;28;20965;-71
2023/08/29 02:36:51;;;;;;;1.70;1.60;;;12.00;99.90;;;;;;5076290;28;20223;-70
2023/08/29 02:39:16;;;;;;;0.70;0.70;;;12.00;99.90;;;;;;5076178;28;20411;-70
2023/08/29 02:41:42;;;;;;;1.37;1.27;;;12.00;99.90;;;;;;5076149;28;20501;-70
2023/08/29 02:44:08;;;;;;;2.33;1.90;;;12.00;99.90;;;;;;5075852;28;20219;-70
2023/08/29 02:46:33;;;;;;;0.90;0.90;;;12.00;99.90;;;;;;5075946;28;20192;-71
2023/08/29 02:48:59;;;;;;;0.57;0.57;;;12.10;99.90;;;;;;5075740;28;20208;-70
2023/08/29 02:51:24;;;;;;;0.60;0.60;;;12.20;99.90;;;;;;5075868;28;20169;-71
2023/08/29 02:53:50;;;;;;;2.10;1.37;;;12.10;99.90;;;;;;5075817;28;20239;-71
2023/08/29 02:56:16;;;;;;;0.80;0.80;;;12.30;99.90;;;;;;5075698;28;20172;-71
2023/08/29 02:58:42;;;;;;;0.73;0.73;;;12.30;99.90;;;;;;5075380;28;20178;-71
2023/08/29 03:01:11;;;;;;;1.63;1.45;;;12.30;99.90;;;;;;5074494;28;20459;-71
2023/08/29 03:03:37;;;;;;;1.80;1.70;;;12.30;99.90;;;;;;5074859;28;20678;-72
2023/08/29 03:06:03;;;;;;;0.87;0.87;;;12.30;99.90;;;;;;5075365;28;20908;-72
2023/08/29 03:08:28;;;;;;;1.53;1.53;;;12.20;99.90;;;;;;5075247;28;20461;-72
2023/08/29 03:10:54;;;;;;;2.50;1.10;;;12.20;99.90;;;;;;5075595;28;20637;-70
2023/08/29 03:13:21;;;;;;;1.80;1.27;;;12.30;99.90;;;;;;5075381;28;20181;-72
2023/08/29 03:15:47;;;;;;;0.90;0.90;;;12.30;99.90;;;;;;5074917;28;20407;-72
2023/08/29 03:18:13;;;;;;;1.30;1.20;;;;;;;;;;5075165;28;20488;-72
2023/08/29 03:20:43;;;;;;;0.77;0.77;;;12.30;99.90;;;;;;5075470;28;20408;-71
2023/08/29 03:23:09;;;;;;;1.27;1.27;;;12.30;99.90;;;;;;5075258;28;20428;-72
2023/08/29 03:25:36;;;;;;;1.10;1.10;;;12.30;99.90;;;;;;5074956;28;20457;-72
2023/08/29 03:28:02;;;;;;;0.60;0.60;;;12.30;99.90;;;;;;5075088;28;20451;-72
2023/08/29 03:30:29;;;;;;;1.70;1.60;;;12.20;99.90;;;;;;5075173;28;20799;-72
2023/08/29 03:32:55;;;;;;;0.60;0.60;;;12.20;99.90;;;;;;5075002;28;20779;-72
2023/08/29 03:35:21;;;;;;;1.07;1.07;;;12.10;99.90;;;;;;5073701;28;20426;-71
2023/08/29 03:37:47;;;;;;;1.03;1.03;;;12.20;99.90;;;;;;5074854;28;20169;-72
2023/08/29 03:40:13;;;;;;;2.77;2.23;;;12.10;99.90;;;;;;5075033;28;20173;-72
2023/08/29 03:42:41;;;;;;;1.20;1.20;;;12.10;99.90;;;;;;5074760;28;20253;-71
2023/08/29 03:45:08;;;;;;;1.50;1.40;;;12.00;99.90;;;;;;5074763;28;20764;-72
2023/08/29 03:47:37;;;;;;;1.90;0.90;;;12.00;99.90;;;;;;5074689;28;20447;-71
2023/08/29 03:50:03;;;;;;;1.50;1.03;;;12.00;99.90;;;;;;5074504;28;20416;-72
2023/08/29 03:52:29;;;;;;;1.40;1.30;;;12.00;99.90;;;;;;5074582;28;20422;-72
2023/08/29 03:54:57;;;;;;;2.20;1.60;;;12.00;99.90;;;;;;5074405;28;20916;-71
2023/08/29 03:57:23;;;;;;;2.80;1.47;;;12.00;99.90;;;;;;5074520;28;20415;-73
2023/08/29 03:59:49;;;;;;;1.47;0.97;;;12.00;99.90;;;;;;5074533;28;20464;-73
2023/08/29 04:02:15;;;;;;;1.20;1.17;;;12.10;99.90;;;;;;5074341;28;20428;-72
2023/08/29 04:04:44;;;;;;;0.40;0.40;;;;;;;;;;5074276;28;20196;-72
2023/08/29 04:07:10;;;;;;;1.27;1.00;;;12.20;99.90;;;;;;5074345;28;20490;-72
2023/08/29 04:09:36;;;;;;;3.00;2.13;;;12.20;99.90;;;;;;5074269;28;20404;-72
2023/08/29 04:12:02;;;;;;;1.33;1.20;;;12.10;99.90;;;;;;5073924;28;20836;-72
2023/08/29 04:14:28;;;;;;;1.57;1.47;;;12.10;99.90;;;;;;5074009;28;20435;-73
2023/08/29 04:16:54;;;;;;;2.40;2.30;;;12.10;99.90;;;;;;5074279;28;20823;-72
2023/08/29 04:19:20;;;;;;;1.27;1.17;;;12.10;99.90;;;;;;5074051;28;20181;-71
2023/08/29 04:21:46;;;;;;;1.10;1.00;;;12.20;99.90;;;;;;5074082;28;20427;-72
2023/08/29 04:24:11;;;;;;;1.97;1.80;;;12.20;99.90;;;;;;5073999;28;20412;-71
2023/08/29 04:26:37;;;;;;;1.50;1.40;;;12.20;99.90;;;;;;5074079;28;20583;-72
2023/08/29 04:29:03;;;;;;;3.60;2.77;;;;;;;;;;5073994;28;20162;-71
2023/08/29 04:31:28;;;;;;;2.10;1.70;;;12.20;99.90;;;;;;5073711;28;20645;-71
2023/08/29 04:33:54;;;;;;;0.83;0.83;;;12.40;99.90;;;;;;5073579;28;20396;-72
2023/08/29 04:36:20;;;;;;;2.10;0.87;;;12.30;99.90;;;;;;5073895;28;20177;-70
2023/08/29 04:38:48;;;;;;;5.70;1.57;;;12.40;99.90;;;;;;5073779;28;20193;-71
2023/08/29 04:41:14;;;;;;;0.67;0.57;;;12.30;99.90;;;;;;5074116;28;20633;-72
2023/08/29 04:43:40;;;;;;;1.43;1.33;;;12.30;99.90;;;;;;5073726;28;20497;-72
2023/08/29 04:46:08;;;;;;;1.60;1.50;;;12.30;99.90;;;;;;5073501;28;20177;-72
2023/08/29 04:48:34;;;;;;;1.37;1.27;;;12.30;99.90;;;;;;5073403;28;20199;-71
2023/08/29 04:51:01;;;;;;;0.73;0.73;;;;;;;;;;5073931;28;20416;-72
2023/08/29 04:53:27;;;;;;;3.03;1.50;;;12.20;99.90;;;;;;5073697;28;20412;-72
2023/08/29 04:56:03;;;;;;;0.70;0.70;;;12.20;99.90;;;;;;5073518;28;20887;-72
2023/08/29 04:58:30;;;;;;;0.60;0.50;;;12.30;99.90;;;;;;5073726;28;20395;-71
2023/08/29 05:00:56;;;;;;;0.80;0.67;;;12.20;99.90;;;;;;5073710;28;20416;-70
2023/08/29 05:03:22;;;;;;;1.40;1.30;;;12.30;99.90;;;;;;5073295;28;20514;-72
2023/08/29 05:05:48;;;;;;;0.47;0.47;;;12.30;99.90;;;;;;5073275;28;20442;-72
2023/08/29 05:08:14;;;;;;;0.80;0.73;;;12.30;99.90;;;;;;5073477;28;20374;-72
2023/08/29 05:10:40;;;;;;;1.47;1.43;;;12.30;99.90;;;;;;5073416;28;20410;-71
2023/08/29 05:13:06;;;;;;;0.80;0.80;;;12.30;99.90;;;;;;5073284;28;20192;-71
2023/08/29 05:15:32;;;;;;;1.20;1.17;;;12.30;99.90;;;;;;5073121;28;20407;-72
2023/08/29 05:17:58;;;;;;;0.93;0.93;;;12.30;99.90;;;;;;5073116;28;20169;-72
2023/08/29 05:20:23;;;;;;;0.80;0.80;;;12.40;99.90;;;;;;5073197;28;20891;-71
2023/08/29 05:22:49;;;;;;;1.67;1.57;;;12.40;99.90;;;;;;5072482;28;20435;-72
2023/08/29 05:25:15;;;;;;;1.53;1.43;;;12.40;99.90;;;;;;5073200;28;20165;-72
2023/08/29 05:27:40;;;;;;;1.57;1.47;;;12.40;99.90;;;;;;5073218;28;20234;-71
2023/08/29 05:30:07;;;;;;;1.27;1.17;;;12.50;99.90;;;;;;5073328;28;20725;-71
2023/08/29 05:32:33;;;;;;;2.37;2.23;;;12.40;99.90;;;;;;5073149;28;20185;-72
2023/08/29 05:34:59;;;;;;;1.43;1.23;;;12.40;99.90;;;;;;5073099;28;20461;-72
2023/08/29 05:37:25;;;;;;;1.50;1.40;;;12.50;99.90;;;;;;5073091;28;20400;-71
2023/08/29 05:39:51;;;;;;;0.60;0.60;;;;;;;;;;5071727;28;20180;-72
2023/08/29 05:42:17;;;;;;;2.70;2.53;;;12.60;99.90;;;;;;5073005;28;20205;-71
2023/08/29 05:44:43;;;;;;;1.13;1.00;;;12.60;99.90;;;;;;5072851;28;20912;-72
2023/08/29 05:47:09;;;;;;;1.00;1.00;;;12.70;99.90;;;;;;5073026;28;20197;-71
2023/08/29 05:49:35;;;;;;;1.93;1.83;;;12.70;99.90;;;;;;5072786;28;20419;-72
2023/08/29 05:52:01;;;;;;;1.27;1.00;;;12.70;99.90;;;;;;5072762;28;20427;-72
2023/08/29 05:54:27;;;;;;;2.67;1.43;;;12.80;99.90;;;;;;5073035;28;20261;-73
2023/08/29 05:56:52;;;;;;;2.80;2.70;;;12.80;99.90;;;;;;5073077;28;20158;-73
2023/08/29 05:59:18;;;;;;;2.23;2.10;;;12.90;99.90;;;;;;5073003;28;20397;-73
2023/08/29 06:01:44;;;;;;;0.80;0.80;;;12.90;99.90;;;;;;5072913;28;20224;-72
2023/08/29 06:04:09;;;;;;;1.33;1.33;;;12.90;99.90;;;;;;5072489;28;20244;-73
2023/08/29 06:06:39;;;;;;;1.77;1.33;;;;;;;;;;5072586;28;20662;-72
2023/08/29 06:09:08;;;;;;;2.03;1.53;;;13.10;99.90;;;;;;5072692;28;20177;-72
2023/08/29 06:11:34;;;;;;;4.20;2.00;;;13.20;99.90;;;;;;5071673;28;20416;-72
2023/08/29 06:14:00;;;;;;;1.37;1.37;;;13.20;99.90;;;;;;5072278;28;20427;-70
2023/08/29 06:16:26;;;;;;;2.83;2.63;;;13.30;99.90;;;;;;5072686;28;20494;-70
2023/08/29 06:18:52;;;;;;;1.03;0.93;;;13.30;99.90;;;;;;5071929;28;20530;-71
2023/08/29 06:21:19;;;;;;;2.47;2.37;;;13.40;99.90;;;;;;5071398;28;20896;-71
2023/08/29 06:23:45;;;;;;;2.10;2.00;;;13.50;99.90;;;;;;5072387;28;20189;-70
2023/08/29 06:26:11;;;;;;;8.80;3.40;;;13.60;99.90;;;;;;5071375;28;20904;-70
2023/08/29 06:28:37;;;;;;;1.33;0.80;;;13.50;99.90;;;;;;5072639;28;20447;-70
2023/08/29 06:31:08;;;;;;;1.27;1.17;;;13.60;99.90;;;;;;5072552;28;20567;-71
2023/08/29 06:33:37;;;;;;;3.33;2.17;;;13.60;99.90;;;;;;5072938;28;20428;-71
2023/08/29 06:36:03;;;;;;;2.40;1.47;;;13.60;99.90;;;;;;5075795;28;20403;-71
2023/08/29 06:38:30;;;;;;;3.00;2.53;;;13.70;99.90;;;;;;5076069;28;20759;-71
2023/08/29 06:40:56;;;;;;;1.70;1.60;;;13.70;99.90;;;;;;5076509;28;20166;-71
2023/08/29 06:43:22;;;;;;;2.20;2.10;;;13.80;99.90;;;;;;5076035;28;20449;-71
2023/08/29 06:45:48;;;;;;;3.93;2.93;;;;;;;;;;5075880;28;20400;-71
2023/08/29 06:48:14;;;;;;;2.30;2.17;;;13.70;99.90;;;;;;5075908;28;20459;-70
2023/08/29 06:50:40;;;;;;;2.03;1.83;;;13.70;99.90;;;;;;5076153;28;20436;-71
2023/08/29 06:53:06;;;;;;;1.17;1.07;;;13.70;99.90;;;;;;5076231;28;20181;-71
2023/08/29 06:55:34;;;;;;;1.97;1.80;;;13.80;99.90;;;;;;5075699;28;20822;-72
2023/08/29 06:58:06;;;;;;;1.13;1.03;;;13.90;99.90;;;;;;5076183;28;20522;-72
2023/08/29 07:00:32;;;;;;;1.83;1.73;;;;;;;;;;5076030;28;20831;-72
2023/08/29 07:02:58;;;;;;;1.93;1.63;;;14.20;99.90;;;;;;5075661;28;20420;-72
2023/08/29 07:05:24;;;;;;;0.80;0.80;;;14.20;99.90;;;;;;5075153;28;20412;-72
2023/08/29 07:07:50;;;;;;;0.97;0.97;;;14.00;99.90;;;;;;5075892;28;20443;-71
2023/08/29 07:10:16;;;;;;;0.60;0.60;;;;;;;;;;5074980;28;20402;-73
2023/08/29 07:12:42;;;;;;;0.40;0.40;;;14.10;99.90;;;;;;5075481;28;20512;-71
2023/08/29 07:15:08;;;;;;;1.13;1.13;;;14.00;99.90;;;;;;5075406;28;20895;-71
2023/08/29 07:17:34;;;;;;;0.77;0.77;;;13.90;99.90;;;;;;5075605;28;20169;-71
2023/08/29 07:20:00;;;;;;;2.00;1.90;;;14.00;99.90;;;;;;5075763;28;20398;-71
2023/08/29 07:22:25;;;;;;;2.27;1.37;;;14.10;99.90;;;;;;5075201;28;20839;-71
2023/08/29 07:24:52;;;;;;;1.13;1.10;;;14.20;99.90;;;;;;5075438;28;20656;-72
2023/08/29 07:27:17;;;;;;;2.20;2.10;;;14.20;99.90;;;;;;5075135;28;20218;-71
2023/08/29 07:29:43;;;;;;;0.60;0.60;;;14.30;99.90;;;;;;5074893;28;20407;-71
2023/08/29 07:32:09;;;;;;;1.23;1.13;;;14.20;99.90;;;;;;5073068;28;20924;-71
2023/08/29 07:34:36;;;;;;;0.90;0.90;;;14.30;99.90;;;;;;5072750;28;20634;-71
2023/08/29 07:37:01;;;;;;;1.30;1.20;;;14.50;99.90;;;;;;5072921;28;20611;-71
2023/08/29 07:39:27;;;;;;;0.70;0.70;;;14.70;99.90;;;;;;5072785;28;20705;-71
2023/08/29 07:41:52;;;;;;;1.03;0.93;;;14.80;99.90;;;;;;5072793;28;20279;-71
2023/08/29 07:44:19;;;;;;;0.83;0.83;;;14.90;99.90;;;;;;5072733;28;20176;-72
2023/08/29 07:46:45;;;;;;;4.20;1.73;;;;;;;;;;5073121;28;20169;-72
2023/08/29 07:49:13;;;;;;;1.20;1.20;;;15.20;99.90;;;;;;5074586;28;20420;-73
2023/08/29 07:51:40;;;;;;;0.87;0.87;;;15.40;99.90;;;;;;5074650;28;20403;-72
2023/08/29 07:54:06;;;;;;;1.43;1.33;;;15.40;99.90;;;;;;5074457;28;20403;-73
2023/08/29 07:56:31;;;;;;;1.17;1.07;;;15.40;99.90;;;;;;5074698;28;20467;-73
2023/08/29 07:58:57;;;;;;;1.03;0.90;;;15.40;99.90;;;;;;5073128;28;20170;-72
2023/08/29 08:01:23;;;;;;;0.90;0.90;;;15.00;99.90;;;;;;5073125;28;20170;-72
2023/08/29 08:03:49;;;;;;;0.57;0.57;;;15.10;99.90;;;;;;5073652;28;20208;-72
2023/08/29 08:06:15;;;;;;;1.07;0.97;;;15.10;99.90;;;;;;5073459;28;20414;-72
2023/08/29 08:08:41;;;;;;;0.47;0.47;;;15.00;99.90;;;;;;5073585;28;20193;-72
2023/08/29 08:11:07;;;;;;;0.53;0.50;;;;;;;;;;5073510;28;20172;-72
2023/08/29 08:13:36;;;;;;;2.93;1.53;;;15.00;99.90;;;;;;5074177;28;20664;-72
2023/08/29 08:16:01;;;;;;;1.63;1.53;;;14.90;99.90;;;;;;5074246;28;20404;-72
2023/08/29 08:18:27;;;;;;;1.37;0.77;;;14.90;99.90;;;;;;5074165;28;20429;-72
2023/08/29 08:20:53;;;;;;;0.60;0.60;;;14.90;99.90;;;;;;5074294;28;20211;-72
2023/08/29 08:23:18;;;;;;;0.47;0.47;;;14.80;99.90;;;;;;5074079;28;20216;-72
2023/08/29 08:25:44;;;;;;;1.37;1.10;;;;;;;;;;5073871;28;20184;-72
2023/08/29 08:28:10;;;;;;;0.50;0.50;;;;;;;;;;5074267;28;20312;-72
2023/08/29 08:30:39;;;;;;;5.77;2.27;;;14.30;99.90;;;;;;5074289;28;20396;-72
2023/08/29 08:33:06;;;;;;;1.70;1.70;;;14.00;99.90;;;;;;5074146;28;20426;-72
2023/08/29 08:35:32;;;;;;;0.70;0.70;;;;;;;;;;5073741;28;20498;-72
2023/08/29 08:37:57;;;;;;;0.70;0.70;;;14.00;99.90;;;;;;5074453;28;20399;-72
2023/08/29 08:40:24;;;;;;;0.50;0.50;;;;;;;;;;5073886;28;20831;-72
2023/08/29 08:42:49;;;;;;;0.50;0.50;;;14.30;99.90;;;;;;5073945;28;20582;-72
2023/08/29 08:45:16;;;;;;;0.73;0.73;;;14.60;99.90;;;;;;5073879;28;20404;-72
2023/08/29 08:47:43;;;;;;;0.70;0.70;;;14.80;99.90;;;;;;5073683;28;20204;-72
2023/08/29 08:50:09;;;;;;;0.63;0.63;;;14.80;99.90;;;;;;5073568;28;20796;-72
2023/08/29 08:52:36;;;;;;;0.60;0.57;;;14.70;99.90;;;;;;5073599;28;20415;-71
2023/08/29 08:55:02;;;;;;;1.37;0.90;;;14.70;99.90;;;;;;5073674;28;20746;-71
2023/08/29 08:57:27;;;;;;;0.50;0.50;;;14.60;99.90;;;;;;5072919;28;20453;-72
2023/08/29 08:59:54;;;;;;;0.80;0.77;;;;;;;;;;5073945;28;20396;-72
2023/08/29 09:02:20;;;;;;;0.87;0.87;;;14.70;99.90;;;;;;5073952;28;20536;-72
2023/08/29 09:04:45;;;;;;;0.40;0.40;;;14.90;99.90;;;;;;5073693;28;20407;-72
2023/08/29 09:07:11;;;;;;;0.60;0.60;;;;;;;;;;5073439;28;20443;-72
2023/08/29 09:09:38;;;;;;;0.50;0.50;;;;;;;;;;5073535;28;20211;-72
2023/08/29 09:12:04;;;;;;;0.60;0.60;;;15.10;99.90;;;;;;5073393;28;20418;-72
2023/08/29 09:14:31;;;;;;;0.80;0.80;;;15.20;99.90;;;;;;5073435;28;20403;-72
2023/08/29 09:16:59;;;;;;;0.70;0.70;;;15.40;99.90;;;;;;5073835;28;20414;-72
2023/08/29 09:19:29;;;;;;;1.03;1.03;;;15.40;99.90;;;;;;5072717;28;20418;-72
2023/08/29 09:21:55;;;;;;;1.03;0.70;;;15.40;99.90;;;;;;5073499;28;20426;-72
2023/08/29 09:24:34;;;;;;;0.60;0.60;;;15.20;99.90;;;;;;5071776;28;20403;-72
2023/08/29 09:27:04;;;;;;;0.90;0.90;;;15.20;99.90;;;;;;5069835;28;20787;-72
2023/08/29 09:29:30;;;;;;;0.50;0.50;;;15.30;99.90;;;;;;5071245;28;20411;-72
2023/08/29 09:31:58;;;;;;;0.70;0.60;;;15.50;99.90;;;;;;5071264;28;20423;-72
2023/08/29 09:34:29;;;;;;;1.13;0.70;;;15.80;99.90;;;;;;5071932;28;20449;-72
2023/08/29 09:36:57;;;;;;;0.60;0.60;;;16.10;99.90;;;;;;5072069;28;20416;-72
2023/08/29 09:39:23;;;;;;;1.00;1.00;;;16.30;99.90;;;;;;5072148;28;20408;-72
2023/08/29 09:41:59;;;;;;;1.27;0.80;;;16.30;99.90;;;;;;5073204;28;20865;-73
2023/08/29 09:44:25;;;;;;;0.77;0.70;;;16.50;99.90;;;;;;5072786;28;20403;-72
2023/08/29 09:46:51;;;;;;;0.73;0.70;;;16.50;99.70;;;;;;5072906;28;20486;-73
2023/08/29 09:49:17;;;;;;;0.70;0.70;;;;;;;;;;5072869;28;20517;-72
2023/08/29 09:51:43;;;;;;;1.63;1.10;;;17.00;99.60;;;;;;5072838;28;20195;-72
2023/08/29 09:54:12;;;;;;;0.57;0.57;;;17.00;99.20;;;;;;5072734;28;20708;-72
2023/08/29 09:56:41;;;;;;;0.40;0.40;;;17.00;99.00;;;;;;5072922;28;20413;-73
2023/08/29 09:59:12;;;;;;;0.50;0.50;;;16.90;98.60;;;;;;5073050;28;20412;-72
2023/08/29 10:01:40;;;;;;;0.67;0.67;;;16.40;99.00;;;;;;5072672;28;20439;-72
2023/08/29 10:04:11;;;;;;;0.80;0.80;;;16.40;99.30;;;;;;5071328;28;20411;-74
2023/08/29 10:06:38;;;;;;;2.00;0.97;;;16.30;99.80;;;;;;5071554;28;20466;-72
2023/08/29 10:09:05;;;;;;;0.40;0.40;;;16.30;99.90;;;;;;5072460;28;20487;-72
2023/08/29 10:11:32;;;;;;;0.50;0.50;;;16.40;99.90;;;;;;5075654;28;20408;-71
2023/08/29 10:13:59;;;;;;;1.30;1.20;;;16.50;99.90;;;;;;5076765;28;20435;-74
2023/08/29 10:16:27;;;;;;;0.83;0.83;;;16.50;99.90;;;;;;5076166;28;20487;-72
2023/08/29 10:18:55;;;;;;;1.43;1.40;;;16.40;99.90;;;;;;5076551;28;20395;-71
2023/08/29 10:21:21;;;;;;;1.77;1.23;;;;;;;;;;5075735;28;20419;-73
2023/08/29 10:23:51;;;;;;;1.17;0.80;;;16.10;99.90;;;;;;5076969;28;20423;-72
2023/08/29 10:26:17;;;;;;;0.77;0.77;;;16.20;99.90;;;;;;5075845;28;20556;-73
2023/08/29 10:28:46;;;;;;;1.20;1.10;;;16.40;99.90;;;;;;5076195;28;20457;-73
2023/08/29 10:31:12;;;;;;;3.60;1.47;;;16.60;99.90;;;;;;5076463;28;20409;-73
2023/08/29 10:33:37;;;;;;;0.97;0.60;;;16.90;99.90;;;;;;5075733;28;20432;-72
2023/08/29 10:36:05;;;;;;;1.03;1.00;;;17.00;99.40;;;;;;5075705;28;20411;-72
2023/08/29 10:38:31;;;;;;;0.83;0.83;;;17.20;98.80;;;;;;5074819;28;20176;-72
2023/08/29 10:41:06;;;;;;;0.67;0.67;;;17.20;98.70;;;;;;5076210;28;20894;-72
2023/08/29 10:43:32;;;;;;;0.77;0.70;;;17.20;98.40;;;;;;5075989;28;20218;-72
2023/08/29 10:46:16;;;;;;;0.70;0.70;;;17.20;98.80;;;;;;5075897;28;20413;-72
2023/08/29 10:48:44;;;;;;;1.07;0.97;;;17.20;99.20;;;;;;5075845;28;20459;-72
2023/08/29 10:51:15;;;;;;;1.13;0.97;;;17.10;99.70;;;;;;5076063;28;20404;-72
2023/08/29 10:53:52;;;;;;;0.60;0.60;;;17.10;98.70;;;;;;5075814;28;20430;-72
2023/08/29 10:56:20;;;;;;;0.50;0.40;;;17.10;99.00;;;;;;5075313;28;20451;-73
2023/08/29 10:58:47;;;;;;;0.73;0.73;;;17.00;99.20;;;;;;5075489;28;20418;-73
2023/08/29 11:01:28;;;;;;;0.60;0.60;;;17.00;99.70;;;;;;5074988;28;20412;-74
2023/08/29 11:03:58;;;;;;;0.80;0.80;;;17.20;99.90;;;;;;5074379;28;20427;-73
2023/08/29 11:06:26;;;;;;;0.93;0.93;;;17.20;99.20;;;;;;5074499;28;20417;-73
2023/08/29 11:09:22;;;;;;;1.23;0.90;;;17.30;99.30;;;;;;5075908;28;20884;-73
2023/08/29 11:12:16;;;;;;;0.70;0.70;;;17.30;99.40;;;;;;5074909;28;20819;-73
2023/08/29 11:14:52;;;;;;;0.80;0.73;;;17.20;99.90;;;;;;5075278;28;20421;-73
2023/08/29 11:17:25;;;;;;;7.40;1.40;;;17.10;99.90;;;;;;5075854;28;20740;-74
2023/08/29 11:19:55;;;;;;;0.80;0.80;;;17.00;99.50;;;;;;5075390;28;20737;-73
2023/08/29 11:22:31;;;;;;;0.63;0.63;;;17.00;99.90;;;;;;5075461;28;20446;-73
2023/08/29 11:24:58;;;;;;;1.40;1.30;;;17.20;99.80;;;;;;5075484;28;20437;-72
2023/08/29 11:27:24;;;;;;;0.90;0.90;;;17.10;99.90;;;;;;5075404;28;20459;-73
2023/08/29 11:29:52;;;;;;;1.23;1.00;;;17.30;99.50;;;;;;5075323;28;20399;-72
2023/08/29 11:32:21;;;;;;;1.27;1.17;;;17.40;99.60;;;;;;5075148;28;20848;-73
2023/08/29 11:34:54;;;;;;;1.03;1.03;;;17.40;99.90;;;;;;5075021;28;20412;-73
2023/08/29 11:37:23;;;;;;;0.70;0.70;;;17.50;99.60;;;;;;5075200;28;20443;-73
2023/08/29 11:39:53;;;;;;;1.57;1.47;;;17.30;99.10;;;;;;5075284;28;20403;-72
2023/08/29 11:42:25;;;;;;;0.83;0.83;;;17.30;99.30;;;;;;5074988;28;20437;-73
2023/08/29 11:44:53;;;;;;;0.80;0.70;;;17.20;98.60;;;;;;5075182;28;20419;-72
2023/08/29 11:47:19;;;;;;;2.30;0.90;;;17.30;99.30;;;;;;5075464;28;20452;-73
2023/08/29 11:49:54;;;;;;;1.83;0.90;;;17.40;99.20;;;;;;5074783;28;20526;-73
2023/08/29 11:52:20;;;;;;;1.07;1.03;;;17.40;99.00;;;;;;5075013;28;20545;-72
2023/08/29 11:54:50;;;;;;;1.57;1.47;;;17.30;99.30;;;;;;5074617;28;20819;-72
2023/08/29 11:57:16;;;;;;;1.00;1.00;;;17.40;99.70;;;;;;5074923;28;20434;-73
2023/08/29 11:59:46;;;;;;;1.37;1.27;;;17.40;98.80;;;;;;5075215;28;20488;-73
2023/08/29 12:02:16;;;;;;;0.80;0.80;;;17.50;99.00;;;;;;5074506;28;20431;-73
2023/08/29 12:04:43;;;;;;;2.10;0.83;;;17.40;98.40;;;;;;5073920;28;20417;-72
2023/08/29 12:07:15;;;;;;;1.00;0.77;;;17.30;98.50;;;;;;5073922;28;20450;-72
2023/08/29 12:09:43;;;;;;;0.57;0.57;;;17.30;98.90;;;;;;5074720;28;20401;-72
2023/08/29 12:12:26;;;;;;;0.53;0.53;;;17.30;98.60;;;;;;5073713;28;20522;-72
2023/08/29 12:14:52;;;;;;;0.50;0.50;;;17.20;97.60;;;;;;5073972;28;20491;-74
2023/08/29 12:17:19;;;;;;;1.43;1.33;;;17.10;99.50;;;;;;5072136;28;20410;-72
2023/08/29 12:19:45;;;;;;;0.53;0.53;;;16.70;99.90;;;;;;5072628;28;20906;-72
2023/08/29 12:22:11;;;;;;;0.93;0.93;;;16.40;99.90;;;;;;5072580;28;20916;-71
2023/08/29 12:24:37;;;;;;;1.40;0.90;;;16.30;99.80;;;;;;5072439;28;20440;-71
2023/08/29 12:27:04;;;;;;;0.67;0.67;;;16.30;99.90;;;;;;5072410;28;20851;-71
2023/08/29 12:29:31;;;;;;;0.87;0.87;;;16.40;99.90;;;;;;5072450;28;20176;-71
2023/08/29 12:31:57;;;;;;;0.70;0.70;;;;;;;;;;5073505;28;20433;-71
2023/08/29 12:34:23;;;;;;;1.40;1.30;;;16.50;99.90;;;;;;5073909;28;20415;-72
2023/08/29 12:36:49;;;;;;;1.27;1.17;;;16.50;99.90;;;;;;5074339;28;20868;-72
2023/08/29 12:39:14;;;;;;;0.70;0.70;;;16.40;99.90;;;;;;5074127;28;20188;-72
2023/08/29 12:41:40;;;;;;;1.93;1.83;;;16.00;99.90;;;;;;5074092;28;20418;-72
2023/08/29 12:44:06;;;;;;;5.33;1.07;;;16.20;99.90;;;;;;5074053;28;20629;-71
2023/08/29 12:46:33;;;;;;;0.40;0.40;;;16.00;99.90;;;;;;5072643;28;20405;-72
2023/08/29 12:48:59;;;;;;;0.80;0.80;;;;;;;;;;5073441;28;20464;-72
2023/08/29 12:51:25;;;;;;;1.03;0.90;;;16.20;99.90;;;;;;5073830;28;20407;-72
2023/08/29 12:53:51;;;;;;;1.30;1.30;;;16.10;99.90;;;;;;5074250;28;20407;-72